createdAt,value
2018-07-15T00:03:49.510Z,19.50
2018-07-15T00:06:17.998Z,19.40
2018-07-15T00:08:46.496Z,19.30
2018-07-15T00:11:15.186Z,19.20
2018-07-15T00:13:43.875Z,19.10
2018-07-15T00:16:12.381Z,19.00
2018-07-15T00:18:40.845Z,18.90
2018-07-15T00:23:37.503Z,19.00
2018-07-15T00:26:06.165Z,18.80
2018-07-15T00:28:34.630Z,18.90
2018-07-15T00:31:03.167Z,18.90
2018-07-15T00:33:31.904Z,19.00
2018-07-15T00:36:00.581Z,19.00
2018-07-15T00:38:29.343Z,19.00
2018-07-15T00:40:57.963Z,19.00
2018-07-15T00:43:26.446Z,19.00
2018-07-15T00:45:54.920Z,18.80
2018-07-15T00:48:23.776Z,19.00
2018-07-15T00:50:52.371Z,18.80
2018-07-15T00:53:20.820Z,18.60
2018-07-15T00:58:17.388Z,18.30
2018-07-15T01:00:51.216Z,18.20
2018-07-15T01:03:19.626Z,18.20
2018-07-15T01:05:48.217Z,18.10
2018-07-15T01:08:16.803Z,18.10
2018-07-15T01:13:13.687Z,18.10
2018-07-15T01:15:42.130Z,18.00
2018-07-15T01:18:10.690Z,18.10
2018-07-15T01:20:39.387Z,18.10
2018-07-15T01:23:08.187Z,18.30
2018-07-15T01:25:36.764Z,18.20
2018-07-15T01:28:05.963Z,17.90
2018-07-15T01:30:34.477Z,17.90
2018-07-15T01:33:02.926Z,17.90
2018-07-15T01:35:31.412Z,18.00
2018-07-15T01:38:06.626Z,17.80
2018-07-15T01:40:35.086Z,17.70
2018-07-15T01:43:03.717Z,17.50
2018-07-15T01:45:32.184Z,17.40
2018-07-15T01:48:00.679Z,17.20
2018-07-15T01:52:57.438Z,17.20
2018-07-15T01:55:25.943Z,17.10
2018-07-15T02:00:22.615Z,17.10
2018-07-15T02:02:51.144Z,17.20
2018-07-15T02:05:19.757Z,17.40
2018-07-15T02:07:48.672Z,17.40
2018-07-15T02:10:17.266Z,17.40
2018-07-15T02:12:45.864Z,17.20
2018-07-15T02:15:14.292Z,17.00
2018-07-15T02:17:42.767Z,16.90
2018-07-15T02:20:11.234Z,16.90
2018-07-15T02:22:40.327Z,16.90
2018-07-15T02:25:08.892Z,16.90
2018-07-15T02:27:37.369Z,16.70
2018-07-15T02:30:05.894Z,16.90
2018-07-15T02:35:02.715Z,16.90
2018-07-15T02:37:31.137Z,16.80
2018-07-15T02:39:59.608Z,16.70
2018-07-15T02:44:56.282Z,16.80
2018-07-15T02:47:24.721Z,16.60
2018-07-15T02:49:53.239Z,16.50
2018-07-15T02:52:21.870Z,16.30
2018-07-15T02:54:50.570Z,16.40
2018-07-15T02:57:19.063Z,16.60
2018-07-15T02:59:47.701Z,16.60
2018-07-15T03:02:16.185Z,16.50
2018-07-15T03:04:44.611Z,16.50
2018-07-15T03:09:41.317Z,16.30
2018-07-15T03:12:09.957Z,16.50
2018-07-15T03:17:07.060Z,16.30
2018-07-15T03:19:35.576Z,16.10
2018-07-15T03:22:04.100Z,16.10
2018-07-15T03:27:00.690Z,16.20
2018-07-15T03:29:29.122Z,15.80
2018-07-15T03:31:57.585Z,15.80
2018-07-15T03:34:26.262Z,15.90
2018-07-15T03:36:54.914Z,15.90
2018-07-15T03:39:23.401Z,15.90
2018-07-15T03:41:51.867Z,15.70
2018-07-15T03:44:20.313Z,15.90
2018-07-15T03:46:48.901Z,16.00
2018-07-15T03:51:45.553Z,16.00
2018-07-15T03:54:14.965Z,16.00
2018-07-15T03:56:43.473Z,16.00
2018-07-15T03:59:11.970Z,15.80
2018-07-15T04:01:40.470Z,15.90
2018-07-15T04:04:08.950Z,16.30
2018-07-15T04:06:37.337Z,16.30
2018-07-15T04:09:06.515Z,16.10
2018-07-15T04:11:35.310Z,16.00
2018-07-15T04:14:04.036Z,15.90
2018-07-15T04:16:32.609Z,16.10
2018-07-15T04:19:01.080Z,16.30
2018-07-15T04:21:29.649Z,16.40
2018-07-15T04:23:58.126Z,16.50
2018-07-15T04:26:26.563Z,16.50
2018-07-15T04:28:55.053Z,16.40
2018-07-15T04:31:23.685Z,16.30
2018-07-15T04:33:52.199Z,16.00
2018-07-15T04:36:20.826Z,16.30
2018-07-15T04:38:49.273Z,16.30
2018-07-15T04:41:17.926Z,16.20
2018-07-15T04:46:14.550Z,16.10
2018-07-15T04:48:43.142Z,16.20
2018-07-15T04:51:11.737Z,16.50
2018-07-15T04:53:40.217Z,16.40
2018-07-15T04:56:08.988Z,16.30
2018-07-15T04:58:37.393Z,16.40
2018-07-15T05:01:05.900Z,16.30
2018-07-15T05:03:34.409Z,16.30
2018-07-15T05:06:05.054Z,16.30
2018-07-15T05:08:33.441Z,16.20
2018-07-15T05:11:01.930Z,16.20
2018-07-15T05:13:30.441Z,16.10
2018-07-15T05:18:27.217Z,16.00
2018-07-15T05:20:55.632Z,16.10
2018-07-15T05:23:24.090Z,16.20
2018-07-15T05:25:52.589Z,16.40
2018-07-15T05:28:21.085Z,16.50
2018-07-15T05:30:49.502Z,16.60
2018-07-15T05:33:17.984Z,16.50
2018-07-15T05:35:46.543Z,16.70
2018-07-15T05:40:43.170Z,16.90
2018-07-15T05:43:11.695Z,17.00
2018-07-15T05:45:40.131Z,17.00
2018-07-15T05:48:08.637Z,17.10
2018-07-15T05:50:37.089Z,17.20
2018-07-15T05:53:05.582Z,17.10
2018-07-15T05:55:34.119Z,17.30
2018-07-15T05:58:02.863Z,17.30
2018-07-15T06:02:59.653Z,17.30
2018-07-15T06:05:28.326Z,17.30
2018-07-15T06:10:25.935Z,17.60
2018-07-15T06:12:54.521Z,17.60
2018-07-15T06:15:23.149Z,17.70
2018-07-15T06:17:51.550Z,17.80
2018-07-15T06:22:48.132Z,18.20
2018-07-15T06:25:16.653Z,18.30
2018-07-15T06:27:45.117Z,18.40
2018-07-15T06:30:13.708Z,18.50
2018-07-15T06:32:42.281Z,18.60
2018-07-15T06:35:10.793Z,18.70
2018-07-15T06:37:39.313Z,18.80
2018-07-15T06:40:08.299Z,18.90
2018-07-15T06:42:36.759Z,19.00
2018-07-15T06:45:05.268Z,19.10
2018-07-15T06:47:33.935Z,19.30
2018-07-15T06:50:02.490Z,19.40
2018-07-15T06:52:30.943Z,19.60
2018-07-15T06:54:59.451Z,19.70
2018-07-15T06:57:28.000Z,19.80
2018-07-15T06:59:56.501Z,19.90
2018-07-15T07:02:25.121Z,20.10
2018-07-15T07:04:53.596Z,20.20
2018-07-15T07:07:22.166Z,20.30
2018-07-15T07:09:50.749Z,20.40
2018-07-15T07:12:19.265Z,20.50
2018-07-15T07:14:47.925Z,20.60
2018-07-15T07:17:16.404Z,20.70
2018-07-15T07:19:44.967Z,20.80
2018-07-15T07:22:13.434Z,20.90
2018-07-15T07:24:41.867Z,21.20
2018-07-15T07:27:10.332Z,21.40
2018-07-15T07:29:39.448Z,21.50
2018-07-15T07:32:08.716Z,21.50
2018-07-15T07:34:37.210Z,21.60
2018-07-15T07:37:05.806Z,21.80
2018-07-15T07:42:02.481Z,22.10
2018-07-15T07:44:31.230Z,22.20
2018-07-15T07:46:59.741Z,22.30
2018-07-15T07:49:28.504Z,22.60
2018-07-15T07:51:57.078Z,22.80
2018-07-15T07:54:25.686Z,23.10
2018-07-15T07:56:54.469Z,23.30
2018-07-15T07:59:22.965Z,23.50
2018-07-15T08:01:51.532Z,23.50
2018-07-15T08:04:20.254Z,23.60
2018-07-15T08:06:48.921Z,23.70
2018-07-15T08:09:17.821Z,23.90
2018-07-15T08:11:46.381Z,24.10
2018-07-15T08:16:43.308Z,24.00
2018-07-15T08:19:11.780Z,24.10
2018-07-15T08:21:40.271Z,24.30
2018-07-15T08:24:09.569Z,24.40
2018-07-15T08:26:38.470Z,24.70
2018-07-15T08:29:06.917Z,25.20
2018-07-15T08:31:35.465Z,25.20
2018-07-15T08:34:03.953Z,24.90
2018-07-15T08:36:32.389Z,24.80
2018-07-15T08:39:00.875Z,24.80
2018-07-15T08:41:29.442Z,25.30
2018-07-15T08:43:57.917Z,25.70
2018-07-15T08:46:26.422Z,25.90
2018-07-15T08:48:55.196Z,25.80
2018-07-15T08:51:23.751Z,25.90
2018-07-15T08:56:20.382Z,26.50
2018-07-15T08:58:49.187Z,26.30
2018-07-15T09:01:18.289Z,26.20
2018-07-15T09:03:46.790Z,26.20
2018-07-15T09:06:15.317Z,26.30
2018-07-15T09:11:12.291Z,26.40
2018-07-15T09:13:40.792Z,26.30
2018-07-15T09:16:09.353Z,26.40
2018-07-15T09:18:37.862Z,27.00
2018-07-15T09:21:06.367Z,27.40
2018-07-15T09:23:35.268Z,26.70
2018-07-15T09:26:03.795Z,26.60
2018-07-15T09:28:32.387Z,26.80
2018-07-15T09:31:00.898Z,27.10
2018-07-15T09:33:30.225Z,27.10
2018-07-15T09:35:58.674Z,27.20
2018-07-15T09:38:27.106Z,27.20
2018-07-15T09:43:23.941Z,26.80
2018-07-15T09:45:52.366Z,26.90
2018-07-15T09:48:20.838Z,26.90
2018-07-15T09:50:49.610Z,26.80
2018-07-15T09:53:18.078Z,27.20
2018-07-15T09:55:46.508Z,27.30
2018-07-15T09:58:14.990Z,27.20
2018-07-15T10:00:48.810Z,27.30
2018-07-15T10:03:17.281Z,27.30
2018-07-15T10:05:45.975Z,27.50
2018-07-15T10:08:14.446Z,27.60
2018-07-15T10:10:42.971Z,28.00
2018-07-15T10:13:11.444Z,28.10
2018-07-15T10:15:39.932Z,28.40
2018-07-15T10:18:08.468Z,27.90
2018-07-15T10:20:37.049Z,28.10
2018-07-15T10:23:05.811Z,28.20
2018-07-15T10:25:34.314Z,28.20
2018-07-15T10:28:02.788Z,28.40
2018-07-15T10:30:31.217Z,28.20
2018-07-15T10:32:59.713Z,28.10
2018-07-15T10:35:28.234Z,28.00
2018-07-15T10:37:57.178Z,28.70
2018-07-15T10:40:25.732Z,28.90
2018-07-15T10:42:54.248Z,29.00
2018-07-15T10:45:22.673Z,29.20
2018-07-15T10:47:51.991Z,29.10
2018-07-15T10:50:20.480Z,28.80
2018-07-15T10:52:49.028Z,29.50
2018-07-15T10:55:17.582Z,29.40
2018-07-15T10:57:46.134Z,28.90
2018-07-15T11:00:14.699Z,28.80
2018-07-15T11:02:43.210Z,29.10
2018-07-15T11:05:11.770Z,29.00
2018-07-15T11:07:40.839Z,28.90
2018-07-15T11:10:09.600Z,28.70
2018-07-15T11:12:38.257Z,28.60
2018-07-15T11:15:06.835Z,28.90
2018-07-15T11:17:35.308Z,28.80
2018-07-15T11:20:03.884Z,29.10
2018-07-15T11:22:32.500Z,29.50
2018-07-15T11:25:01.034Z,29.70
2018-07-15T11:27:29.501Z,29.60
2018-07-15T11:29:58.049Z,29.90
2018-07-15T11:32:26.696Z,29.80
2018-07-15T11:34:55.191Z,29.10
2018-07-15T11:37:23.896Z,28.80
2018-07-15T11:39:52.427Z,28.70
2018-07-15T11:42:21.150Z,28.40
2018-07-15T11:44:49.613Z,28.70
2018-07-15T11:47:18.162Z,29.40
2018-07-15T11:49:46.794Z,29.30
2018-07-15T11:52:15.319Z,29.50
2018-07-15T11:54:43.906Z,29.60
2018-07-15T11:57:12.674Z,29.20
2018-07-15T11:59:41.393Z,29.30
2018-07-15T12:02:10.142Z,29.30
2018-07-15T12:04:39.518Z,29.40
2018-07-15T12:07:08.024Z,29.40
2018-07-15T12:09:36.612Z,29.20
2018-07-15T12:12:05.134Z,28.70
2018-07-15T12:14:33.703Z,28.60
2018-07-15T12:19:31.090Z,28.50
2018-07-15T12:21:59.787Z,28.70
2018-07-15T12:24:28.319Z,28.70
2018-07-15T12:27:03.490Z,28.50
2018-07-15T12:32:00.577Z,28.70
2018-07-15T12:34:29.097Z,28.80
2018-07-15T12:36:58.027Z,28.80
2018-07-15T12:39:27.256Z,28.80
2018-07-15T12:41:55.929Z,28.90
2018-07-15T12:44:24.557Z,29.40
2018-07-15T12:46:53.113Z,29.50
2018-07-15T12:49:24.533Z,29.40
2018-07-15T12:56:49.765Z,29.40
2018-07-15T13:01:46.706Z,29.00
2018-07-15T13:04:15.271Z,29.10
2018-07-15T13:06:43.932Z,29.10
2018-07-15T13:09:12.671Z,29.00
2018-07-15T13:11:41.185Z,28.90
2018-07-15T13:14:09.783Z,29.00
2018-07-15T13:16:38.364Z,28.80
2018-07-15T13:19:06.934Z,28.60
2018-07-15T13:21:35.472Z,28.50
2018-07-15T13:24:04.179Z,28.60
2018-07-15T13:26:32.818Z,28.70
2018-07-15T13:29:01.315Z,28.80
2018-07-15T13:31:30.153Z,29.10
2018-07-15T13:33:58.736Z,29.30
2018-07-15T13:36:27.762Z,29.50
2018-07-15T13:38:56.731Z,29.30
2018-07-15T13:41:25.399Z,29.30
2018-07-15T13:44:00.526Z,29.30
2018-07-15T13:48:57.497Z,29.10
2018-07-15T13:53:54.790Z,29.00
2018-07-15T13:58:52.031Z,29.50
2018-07-15T14:01:20.591Z,29.50
2018-07-15T14:03:49.059Z,29.50
2018-07-15T14:06:17.773Z,29.30
2018-07-15T14:08:46.376Z,29.40
2018-07-15T14:11:14.870Z,29.50
2018-07-15T14:13:43.341Z,29.40
2018-07-15T14:18:40.643Z,29.20
2018-07-15T14:21:09.163Z,29.30
2018-07-15T14:23:37.849Z,29.30
2018-07-15T14:26:06.732Z,29.30
2018-07-15T14:28:35.253Z,29.20
2018-07-15T14:31:03.827Z,29.30
2018-07-15T14:33:32.321Z,29.20
2018-07-15T14:36:00.852Z,29.10
2018-07-15T14:38:29.341Z,29.20
2018-07-15T14:40:57.859Z,29.40
2018-07-15T14:43:26.805Z,29.30
2018-07-15T14:45:55.529Z,29.60
2018-07-15T14:48:24.011Z,29.50
2018-07-15T14:50:52.583Z,29.50
2018-07-15T14:55:49.450Z,29.10
2018-07-15T14:58:17.842Z,29.10
2018-07-15T15:00:46.316Z,29.20
2018-07-15T15:03:14.816Z,29.10
2018-07-15T15:05:43.281Z,29.20
2018-07-15T15:08:11.790Z,29.20
2018-07-15T15:10:40.533Z,29.30
2018-07-15T15:13:09.483Z,29.00
2018-07-15T15:15:38.531Z,28.40
2018-07-15T15:20:35.246Z,27.40
2018-07-15T15:23:03.773Z,27.30
2018-07-15T15:25:32.326Z,27.10
2018-07-15T15:28:00.731Z,26.90
2018-07-15T15:32:57.631Z,26.60
2018-07-15T15:35:26.177Z,26.60
2018-07-15T15:37:54.635Z,26.70
2018-07-15T15:40:23.649Z,26.50
2018-07-15T15:42:52.401Z,26.40
2018-07-15T15:45:21.197Z,26.00
2018-07-15T15:47:49.908Z,26.00
2018-07-15T15:50:18.625Z,25.90
2018-07-15T15:52:47.398Z,25.90
2018-07-15T15:55:15.889Z,25.80
2018-07-15T15:57:44.618Z,25.50
2018-07-15T16:00:13.221Z,25.40
2018-07-15T16:07:38.299Z,25.70
2018-07-15T16:10:07.164Z,25.50
2018-07-15T16:12:35.714Z,25.20
2018-07-15T16:15:04.353Z,25.00
2018-07-15T16:17:33.013Z,24.90
2018-07-15T16:20:01.542Z,24.60
2018-07-15T16:22:30.023Z,24.40
2018-07-15T16:24:58.557Z,24.40
2018-07-15T16:27:27.079Z,24.40
2018-07-15T16:29:55.690Z,24.30
2018-07-15T16:32:24.264Z,24.50
2018-07-15T16:34:52.791Z,24.30
2018-07-15T16:37:21.329Z,24.10
2018-07-15T16:39:50.052Z,24.00
2018-07-15T16:42:18.651Z,24.10
2018-07-15T16:44:47.245Z,24.00
2018-07-15T16:47:15.752Z,23.80
2018-07-15T16:49:44.397Z,23.80
2018-07-15T16:52:13.322Z,23.90
2018-07-15T16:54:41.959Z,23.80
2018-07-15T16:57:11.097Z,23.60
2018-07-15T16:59:39.857Z,23.60
2018-07-15T17:02:08.741Z,23.60
2018-07-15T17:04:37.245Z,23.70
2018-07-15T17:07:06.190Z,23.70
2018-07-15T17:09:34.755Z,23.70
2018-07-15T17:12:03.253Z,23.70
2018-07-15T17:14:31.773Z,23.70
2018-07-15T17:19:28.697Z,23.70
2018-07-15T17:21:57.292Z,23.70
2018-07-15T17:24:26.006Z,23.70
2018-07-15T17:26:54.492Z,23.80
2018-07-15T17:29:23.270Z,23.60
2018-07-15T17:34:20.038Z,23.60
2018-07-15T17:36:49.425Z,23.50
2018-07-15T17:39:18.021Z,23.60
2018-07-15T17:41:46.558Z,23.50
2018-07-15T17:44:15.076Z,23.50
2018-07-15T17:46:43.530Z,23.60
2018-07-15T17:49:12.063Z,23.60
2018-07-15T17:51:41.032Z,23.60
2018-07-15T17:54:09.610Z,23.60
2018-07-15T17:56:38.892Z,23.50
2018-07-15T17:59:07.403Z,23.40
2018-07-15T18:01:35.935Z,23.50
2018-07-15T18:04:04.498Z,23.40
2018-07-15T18:06:32.992Z,23.20
2018-07-15T18:09:01.562Z,23.00
2018-07-15T18:11:30.322Z,22.80
2018-07-15T18:16:27.018Z,22.40
2018-07-15T18:18:55.752Z,22.30
2018-07-15T18:23:52.673Z,22.40
2018-07-15T18:26:21.233Z,22.40
2018-07-15T18:28:49.703Z,22.50
2018-07-15T18:31:18.172Z,22.60
2018-07-15T18:38:43.300Z,22.60
2018-07-15T18:43:40.088Z,22.40
2018-07-15T18:46:09.889Z,22.40
2018-07-15T18:48:38.738Z,22.30
2018-07-15T18:51:07.257Z,22.30
2018-07-15T18:53:35.822Z,22.30
2018-07-15T18:56:04.742Z,22.30
2018-07-15T18:58:33.346Z,22.30
2018-07-15T19:01:01.995Z,22.20
2018-07-15T19:03:30.590Z,22.20
2018-07-15T19:08:27.513Z,21.90
2018-07-15T19:10:56.082Z,21.70
2018-07-15T19:13:24.661Z,21.60
2018-07-15T19:15:53.219Z,21.50
2018-07-15T19:18:21.756Z,21.40
2018-07-15T19:20:50.215Z,21.30
2018-07-15T19:23:18.799Z,21.30
2018-07-15T19:25:47.379Z,21.20
2018-07-15T19:28:15.900Z,21.20
2018-07-15T19:30:44.701Z,21.10
2018-07-15T19:33:13.618Z,21.00
2018-07-15T19:35:42.305Z,20.90
2018-07-15T19:38:10.940Z,20.90
2018-07-15T19:40:39.472Z,20.80
2018-07-15T19:43:08.324Z,20.80
2018-07-15T19:48:05.891Z,20.70
2018-07-15T19:50:35.517Z,20.70
2018-07-15T19:53:04.080Z,20.70
2018-07-15T19:55:32.815Z,20.60
2018-07-15T19:58:01.446Z,20.70
2018-07-15T20:00:30.555Z,20.60
2018-07-15T20:05:28.065Z,20.80
2018-07-15T20:07:56.889Z,20.70
2018-07-15T20:10:25.398Z,20.60
2018-07-15T20:12:53.897Z,20.70
2018-07-15T20:15:22.414Z,20.70
2018-07-15T20:17:50.951Z,20.60
2018-07-15T20:22:47.829Z,20.50
2018-07-15T20:25:16.353Z,20.50
2018-07-15T20:27:44.956Z,20.50
2018-07-15T20:30:13.478Z,20.50
2018-07-15T20:32:42.028Z,20.50
2018-07-15T20:35:10.608Z,20.30
2018-07-15T20:37:39.125Z,20.30
2018-07-15T20:40:07.660Z,20.40
2018-07-15T20:42:36.246Z,20.40
2018-07-15T20:45:04.803Z,20.40
2018-07-15T20:47:33.339Z,20.50
2018-07-15T20:52:30.315Z,20.00
2018-07-15T20:54:58.779Z,19.70
2018-07-15T20:59:55.503Z,20.00
2018-07-15T21:02:24.073Z,20.00
2018-07-15T21:04:53.424Z,20.00
2018-07-15T21:07:22.008Z,20.00
2018-07-15T21:12:25.304Z,20.00
2018-07-15T21:17:22.002Z,19.90
2018-07-15T21:19:50.509Z,19.80
2018-07-15T21:22:19.169Z,19.90
2018-07-15T21:24:47.913Z,20.00
2018-07-15T21:27:16.368Z,19.90
2018-07-15T21:29:45.213Z,19.90
2018-07-15T21:32:13.952Z,19.90
2018-07-15T21:34:42.613Z,20.00
2018-07-15T21:37:11.567Z,19.90
2018-07-15T21:39:40.230Z,19.90
2018-07-15T21:42:08.695Z,19.90
2018-07-15T21:44:37.117Z,19.90
2018-07-15T21:47:05.604Z,19.90
2018-07-15T21:49:34.149Z,19.90
2018-07-15T21:52:02.630Z,19.80
2018-07-15T21:54:31.110Z,19.80
2018-07-15T21:56:59.631Z,19.80
2018-07-15T21:59:29.326Z,19.90
2018-07-15T22:01:58.030Z,19.90
2018-07-15T22:04:26.535Z,19.80
2018-07-15T22:07:06.125Z,19.80
2018-07-15T22:09:56.240Z,19.60
2018-07-15T22:12:24.945Z,19.70
2018-07-15T22:14:53.782Z,19.60
2018-07-15T22:19:50.546Z,19.60
2018-07-15T22:24:47.207Z,19.50
2018-07-15T22:27:15.670Z,19.40
2018-07-15T22:29:44.937Z,19.20
2018-07-15T22:32:13.448Z,19.30
2018-07-15T22:34:42.577Z,19.30
2018-07-15T22:37:11.205Z,19.30
2018-07-15T22:39:39.733Z,19.30
2018-07-15T22:42:08.252Z,19.40
2018-07-15T22:44:36.749Z,19.30
2018-07-15T22:47:05.603Z,19.40
2018-07-15T22:49:34.094Z,19.30
2018-07-15T22:52:02.844Z,19.20
2018-07-15T22:56:59.544Z,19.10
2018-07-15T22:59:27.958Z,19.10
2018-07-15T23:01:56.405Z,19.00
2018-07-15T23:05:46.338Z,19.00
2018-07-15T23:08:14.840Z,19.00
2018-07-15T23:13:12.529Z,19.10
2018-07-15T23:15:41.471Z,19.10
2018-07-15T23:18:09.941Z,19.30
2018-07-15T23:20:39.363Z,19.20
2018-07-15T23:23:08.778Z,19.20
2018-07-15T23:25:37.245Z,19.30
2018-07-15T23:28:06.555Z,19.30
2018-07-15T23:30:36.071Z,19.20
2018-07-15T23:35:33.513Z,19.30
2018-07-15T23:38:02.018Z,19.40
2018-07-15T23:40:31.053Z,19.30
2018-07-15T23:43:00.104Z,19.40
2018-07-15T23:45:29.789Z,19.30
2018-07-15T23:47:58.278Z,19.20
2018-07-15T23:50:26.845Z,19.10
2018-07-15T23:52:55.637Z,19.00
2018-07-15T23:55:24.346Z,19.00
2018-07-15T23:57:52.992Z,19.00
